sensor_id;sensor_type;location;lat;lon;timestamp;P1;durP1;ratioP1;P2;durP2;ratioP2
36551;SDS011;22559;54.176;12.102;2023-07-31T00:00:40;2.70;;;1.80;;
36551;SDS011;22559;54.176;12.102;2023-07-31T00:03:06;1.80;;;1.70;;
36551;SDS011;22559;54.176;12.102;2023-07-31T00:05:32;4.43;;;1.90;;
36551;SDS011;22559;54.176;12.102;2023-07-31T00:07:57;2.03;;;1.60;;
36551;SDS011;22559;54.176;12.102;2023-07-31T00:10:23;4.80;;;1.73;;
36551;SDS011;22559;54.176;12.102;2023-07-31T00:12:48;6.63;;;1.70;;
36551;SDS011;22559;54.176;12.102;2023-07-31T00:15:14;1.90;;;1.80;;
36551;SDS011;22559;54.176;12.102;2023-07-31T00:17:40;3.73;;;1.63;;
36551;SDS011;22559;54.176;12.102;2023-07-31T00:20:06;3.23;;;1.53;;
36551;SDS011;22559;54.176;12.102;2023-07-31T00:22:32;3.13;;;1.43;;
36551;SDS011;22559;54.176;12.102;2023-07-31T00:24:57;1.50;;;1.40;;
36551;SDS011;22559;54.176;12.102;2023-07-31T00:27:24;4.47;;;1.80;;
36551;SDS011;22559;54.176;12.102;2023-07-31T00:29:50;2.37;;;1.80;;
36551;SDS011;22559;54.176;12.102;2023-07-31T00:32:16;2.43;;;1.60;;
36551;SDS011;22559;54.176;12.102;2023-07-31T00:34:41;1.90;;;1.77;;
36551;SDS011;22559;54.176;12.102;2023-07-31T00:37:07;2.90;;;1.63;;
36551;SDS011;22559;54.176;12.102;2023-07-31T00:39:33;2.03;;;1.50;;
36551;SDS011;22559;54.176;12.102;2023-07-31T00:41:59;5.27;;;1.90;;
36551;SDS011;22559;54.176;12.102;2023-07-31T00:44:25;3.80;;;1.80;;
36551;SDS011;22559;54.176;12.102;2023-07-31T00:46:51;3.00;;;1.83;;
36551;SDS011;22559;54.176;12.102;2023-07-31T00:49:18;1.80;;;1.63;;
36551;SDS011;22559;54.176;12.102;2023-07-31T00:51:45;2.43;;;1.53;;
36551;SDS011;22559;54.176;12.102;2023-07-31T00:54:10;1.80;;;1.60;;
36551;SDS011;22559;54.176;12.102;2023-07-31T00:56:36;2.13;;;1.60;;
36551;SDS011;22559;54.176;12.102;2023-07-31T00:59:02;4.80;;;1.57;;
36551;SDS011;22559;54.176;12.102;2023-07-31T01:01:28;1.83;;;1.70;;
36551;SDS011;22559;54.176;12.102;2023-07-31T01:03:54;3.73;;;2.37;;
36551;SDS011;22559;54.176;12.102;2023-07-31T01:09:02;3.67;;;1.63;;
36551;SDS011;22559;54.176;12.102;2023-07-31T01:11:34;1.80;;;1.63;;
36551;SDS011;22559;54.176;12.102;2023-07-31T01:14:07;3.90;;;1.60;;
36551;SDS011;22559;54.176;12.102;2023-07-31T01:16:33;2.23;;;1.40;;
36551;SDS011;22559;54.176;12.102;2023-07-31T01:18:58;2.30;;;1.40;;
36551;SDS011;22559;54.176;12.102;2023-07-31T01:21:30;2.50;;;1.30;;
36551;SDS011;22559;54.176;12.102;2023-07-31T01:27:15;1.43;;;1.33;;
36551;SDS011;22559;54.176;12.102;2023-07-31T01:29:49;2.90;;;1.63;;
36551;SDS011;22559;54.176;12.102;2023-07-31T01:32:24;1.63;;;1.50;;
36551;SDS011;22559;54.176;12.102;2023-07-31T01:34:51;2.63;;;1.90;;
36551;SDS011;22559;54.176;12.102;2023-07-31T01:37:18;2.10;;;2.00;;
36551;SDS011;22559;54.176;12.102;2023-07-31T01:39:44;4.10;;;2.20;;
36551;SDS011;22559;54.176;12.102;2023-07-31T01:42:09;1.70;;;1.60;;
36551;SDS011;22559;54.176;12.102;2023-07-31T01:44:35;2.30;;;2.10;;
36551;SDS011;22559;54.176;12.102;2023-07-31T01:47:01;1.90;;;1.60;;
36551;SDS011;22559;54.176;12.102;2023-07-31T01:49:26;3.03;;;1.83;;
36551;SDS011;22559;54.176;12.102;2023-07-31T01:51:52;4.57;;;1.97;;
36551;SDS011;22559;54.176;12.102;2023-07-31T01:54:17;2.00;;;1.70;;
36551;SDS011;22559;54.176;12.102;2023-07-31T01:56:43;2.47;;;1.90;;
36551;SDS011;22559;54.176;12.102;2023-07-31T01:59:09;2.50;;;1.80;;
36551;SDS011;22559;54.176;12.102;2023-07-31T02:01:34;3.43;;;1.90;;
36551;SDS011;22559;54.176;12.102;2023-07-31T02:04:00;5.70;;;1.70;;
36551;SDS011;22559;54.176;12.102;2023-07-31T02:06:26;3.47;;;1.93;;
36551;SDS011;22559;54.176;12.102;2023-07-31T02:08:52;5.50;;;2.20;;
36551;SDS011;22559;54.176;12.102;2023-07-31T02:11:17;2.43;;;1.83;;
36551;SDS011;22559;54.176;12.102;2023-07-31T02:13:43;2.67;;;1.57;;
36551;SDS011;22559;54.176;12.102;2023-07-31T02:16:08;3.90;;;1.90;;
36551;SDS011;22559;54.176;12.102;2023-07-31T02:18:34;4.33;;;1.80;;
36551;SDS011;22559;54.176;12.102;2023-07-31T02:21:00;2.17;;;1.93;;
36551;SDS011;22559;54.176;12.102;2023-07-31T02:23:25;2.83;;;1.83;;
36551;SDS011;22559;54.176;12.102;2023-07-31T02:25:51;3.80;;;1.90;;
36551;SDS011;22559;54.176;12.102;2023-07-31T02:28:17;3.90;;;2.17;;
36551;SDS011;22559;54.176;12.102;2023-07-31T02:30:45;2.87;;;1.90;;
36551;SDS011;22559;54.176;12.102;2023-07-31T02:33:11;2.70;;;2.10;;
36551;SDS011;22559;54.176;12.102;2023-07-31T02:35:37;2.30;;;2.10;;
36551;SDS011;22559;54.176;12.102;2023-07-31T02:38:02;2.90;;;1.70;;
36551;SDS011;22559;54.176;12.102;2023-07-31T02:40:28;2.83;;;1.93;;
36551;SDS011;22559;54.176;12.102;2023-07-31T02:42:54;3.93;;;2.00;;
36551;SDS011;22559;54.176;12.102;2023-07-31T02:45:19;3.47;;;2.13;;
36551;SDS011;22559;54.176;12.102;2023-07-31T02:47:45;6.40;;;2.37;;
36551;SDS011;22559;54.176;12.102;2023-07-31T02:50:11;2.33;;;2.13;;
36551;SDS011;22559;54.176;12.102;2023-07-31T02:52:36;3.20;;;2.50;;
36551;SDS011;22559;54.176;12.102;2023-07-31T02:55:02;3.90;;;2.23;;
36551;SDS011;22559;54.176;12.102;2023-07-31T02:57:27;4.60;;;2.83;;
36551;SDS011;22559;54.176;12.102;2023-07-31T02:59:53;4.67;;;2.40;;
36551;SDS011;22559;54.176;12.102;2023-07-31T03:02:19;7.13;;;2.53;;
36551;SDS011;22559;54.176;12.102;2023-07-31T03:04:44;5.00;;;2.13;;
36551;SDS011;22559;54.176;12.102;2023-07-31T03:07:10;3.00;;;2.73;;
36551;SDS011;22559;54.176;12.102;2023-07-31T03:09:36;4.33;;;2.53;;
36551;SDS011;22559;54.176;12.102;2023-07-31T03:12:01;6.33;;;2.47;;
36551;SDS011;22559;54.176;12.102;2023-07-31T03:14:27;4.80;;;2.87;;
36551;SDS011;22559;54.176;12.102;2023-07-31T03:16:53;6.03;;;2.90;;
36551;SDS011;22559;54.176;12.102;2023-07-31T03:19:18;6.43;;;2.90;;
36551;SDS011;22559;54.176;12.102;2023-07-31T03:21:44;4.23;;;2.97;;
36551;SDS011;22559;54.176;12.102;2023-07-31T03:24:10;7.10;;;2.70;;
36551;SDS011;22559;54.176;12.102;2023-07-31T03:26:37;4.23;;;2.67;;
36551;SDS011;22559;54.176;12.102;2023-07-31T03:29:03;8.53;;;2.67;;
36551;SDS011;22559;54.176;12.102;2023-07-31T03:31:29;4.93;;;3.03;;
36551;SDS011;22559;54.176;12.102;2023-07-31T03:33:54;4.83;;;2.60;;
36551;SDS011;22559;54.176;12.102;2023-07-31T03:36:20;4.30;;;2.70;;
36551;SDS011;22559;54.176;12.102;2023-07-31T03:38:46;7.03;;;3.67;;
36551;SDS011;22559;54.176;12.102;2023-07-31T03:41:11;3.37;;;2.63;;
36551;SDS011;22559;54.176;12.102;2023-07-31T03:43:37;7.33;;;4.00;;
36551;SDS011;22559;54.176;12.102;2023-07-31T03:46:03;5.73;;;3.03;;
36551;SDS011;22559;54.176;12.102;2023-07-31T03:48:28;7.67;;;2.90;;
36551;SDS011;22559;54.176;12.102;2023-07-31T03:50:54;5.87;;;3.10;;
36551;SDS011;22559;54.176;12.102;2023-07-31T03:53:20;4.00;;;2.97;;
36551;SDS011;22559;54.176;12.102;2023-07-31T03:55:46;7.70;;;3.80;;
36551;SDS011;22559;54.176;12.102;2023-07-31T03:58:11;4.10;;;3.63;;
36551;SDS011;22559;54.176;12.102;2023-07-31T04:00:37;2.93;;;2.73;;
36551;SDS011;22559;54.176;12.102;2023-07-31T04:03:03;5.20;;;3.83;;
36551;SDS011;22559;54.176;12.102;2023-07-31T04:05:32;5.83;;;3.60;;
36551;SDS011;22559;54.176;12.102;2023-07-31T04:07:58;4.83;;;3.77;;
36551;SDS011;22559;54.176;12.102;2023-07-31T04:10:23;4.27;;;3.40;;
36551;SDS011;22559;54.176;12.102;2023-07-31T04:12:49;4.17;;;3.77;;
36551;SDS011;22559;54.176;12.102;2023-07-31T04:15:14;6.90;;;4.27;;
36551;SDS011;22559;54.176;12.102;2023-07-31T04:17:40;5.90;;;4.13;;
36551;SDS011;22559;54.176;12.102;2023-07-31T04:20:06;8.40;;;4.00;;
36551;SDS011;22559;54.176;12.102;2023-07-31T04:22:32;3.73;;;3.20;;
36551;SDS011;22559;54.176;12.102;2023-07-31T04:24:58;7.50;;;3.63;;
36551;SDS011;22559;54.176;12.102;2023-07-31T04:27:23;7.20;;;3.70;;
36551;SDS011;22559;54.176;12.102;2023-07-31T04:29:49;7.03;;;3.93;;
36551;SDS011;22559;54.176;12.102;2023-07-31T04:32:16;5.73;;;2.83;;
36551;SDS011;22559;54.176;12.102;2023-07-31T04:34:41;3.40;;;2.77;;
36551;SDS011;22559;54.176;12.102;2023-07-31T04:37:07;6.07;;;3.20;;
36551;SDS011;22559;54.176;12.102;2023-07-31T04:39:33;5.40;;;3.07;;
36551;SDS011;22559;54.176;12.102;2023-07-31T04:41:59;5.57;;;3.20;;
36551;SDS011;22559;54.176;12.102;2023-07-31T04:44:24;3.17;;;2.87;;
36551;SDS011;22559;54.176;12.102;2023-07-31T04:46:50;3.50;;;3.20;;
36551;SDS011;22559;54.176;12.102;2023-07-31T04:49:15;5.43;;;3.23;;
36551;SDS011;22559;54.176;12.102;2023-07-31T04:51:41;7.27;;;3.83;;
36551;SDS011;22559;54.176;12.102;2023-07-31T04:54:07;4.50;;;3.10;;
36551;SDS011;22559;54.176;12.102;2023-07-31T04:56:32;5.90;;;3.40;;
36551;SDS011;22559;54.176;12.102;2023-07-31T04:58:58;6.53;;;3.53;;
36551;SDS011;22559;54.176;12.102;2023-07-31T05:01:23;6.10;;;3.70;;
36551;SDS011;22559;54.176;12.102;2023-07-31T05:03:49;4.40;;;3.60;;
36551;SDS011;22559;54.176;12.102;2023-07-31T05:06:15;3.97;;;3.60;;
36551;SDS011;22559;54.176;12.102;2023-07-31T05:08:41;6.73;;;3.63;;
36551;SDS011;22559;54.176;12.102;2023-07-31T05:11:06;4.00;;;2.83;;
36551;SDS011;22559;54.176;12.102;2023-07-31T05:13:32;5.50;;;3.30;;
36551;SDS011;22559;54.176;12.102;2023-07-31T05:15:57;6.00;;;3.73;;
36551;SDS011;22559;54.176;12.102;2023-07-31T05:18:23;5.63;;;3.80;;
36551;SDS011;22559;54.176;12.102;2023-07-31T05:20:49;7.57;;;3.70;;
36551;SDS011;22559;54.176;12.102;2023-07-31T05:23:14;3.73;;;3.23;;
36551;SDS011;22559;54.176;12.102;2023-07-31T05:25:40;3.77;;;3.47;;
36551;SDS011;22559;54.176;12.102;2023-07-31T05:28:05;5.27;;;3.57;;
36551;SDS011;22559;54.176;12.102;2023-07-31T05:30:31;6.40;;;4.47;;
36551;SDS011;22559;54.176;12.102;2023-07-31T05:32:57;6.33;;;4.00;;
36551;SDS011;22559;54.176;12.102;2023-07-31T05:35:22;5.53;;;3.50;;
36551;SDS011;22559;54.176;12.102;2023-07-31T05:37:48;5.63;;;3.97;;
36551;SDS011;22559;54.176;12.102;2023-07-31T05:40:14;6.70;;;4.10;;
36551;SDS011;22559;54.176;12.102;2023-07-31T05:42:39;4.73;;;4.03;;
36551;SDS011;22559;54.176;12.102;2023-07-31T05:45:08;4.67;;;3.80;;
36551;SDS011;22559;54.176;12.102;2023-07-31T05:47:34;5.73;;;4.17;;
36551;SDS011;22559;54.176;12.102;2023-07-31T05:50:00;5.47;;;4.70;;
36551;SDS011;22559;54.176;12.102;2023-07-31T05:52:26;4.67;;;3.80;;
36551;SDS011;22559;54.176;12.102;2023-07-31T05:54:53;4.17;;;3.63;;
36551;SDS011;22559;54.176;12.102;2023-07-31T05:57:19;6.43;;;4.50;;
36551;SDS011;22559;54.176;12.102;2023-07-31T05:59:45;7.10;;;4.00;;
36551;SDS011;22559;54.176;12.102;2023-07-31T06:02:11;6.90;;;4.27;;
36551;SDS011;22559;54.176;12.102;2023-07-31T06:04:36;9.03;;;3.87;;
36551;SDS011;22559;54.176;12.102;2023-07-31T06:07:02;6.73;;;4.00;;
36551;SDS011;22559;54.176;12.102;2023-07-31T06:09:28;4.57;;;4.00;;
36551;SDS011;22559;54.176;12.102;2023-07-31T06:11:54;4.97;;;4.10;;
36551;SDS011;22559;54.176;12.102;2023-07-31T06:14:20;6.60;;;5.93;;
36551;SDS011;22559;54.176;12.102;2023-07-31T06:16:45;9.00;;;3.90;;
36551;SDS011;22559;54.176;12.102;2023-07-31T06:19:11;4.87;;;4.37;;
36551;SDS011;22559;54.176;12.102;2023-07-31T06:21:36;7.73;;;5.40;;
36551;SDS011;22559;54.176;12.102;2023-07-31T06:24:03;6.00;;;4.00;;
36551;SDS011;22559;54.176;12.102;2023-07-31T06:26:30;6.73;;;4.30;;
36551;SDS011;22559;54.176;12.102;2023-07-31T06:28:55;4.50;;;4.10;;
36551;SDS011;22559;54.176;12.102;2023-07-31T06:31:21;5.00;;;4.20;;
36551;SDS011;22559;54.176;12.102;2023-07-31T06:33:48;7.60;;;4.13;;
36551;SDS011;22559;54.176;12.102;2023-07-31T06:36:14;4.63;;;3.70;;
36551;SDS011;22559;54.176;12.102;2023-07-31T06:38:40;5.77;;;3.90;;
36551;SDS011;22559;54.176;12.102;2023-07-31T06:41:06;5.97;;;3.87;;
36551;SDS011;22559;54.176;12.102;2023-07-31T06:43:31;6.03;;;4.50;;
36551;SDS011;22559;54.176;12.102;2023-07-31T06:45:57;5.00;;;4.50;;
36551;SDS011;22559;54.176;12.102;2023-07-31T06:48:22;8.57;;;4.97;;
36551;SDS011;22559;54.176;12.102;2023-07-31T06:50:48;4.40;;;3.97;;
36551;SDS011;22559;54.176;12.102;2023-07-31T06:53:14;6.47;;;4.97;;
36551;SDS011;22559;54.176;12.102;2023-07-31T06:55:39;5.73;;;4.80;;
36551;SDS011;22559;54.176;12.102;2023-07-31T06:58:05;5.73;;;4.67;;
36551;SDS011;22559;54.176;12.102;2023-07-31T07:00:31;5.20;;;4.70;;
36551;SDS011;22559;54.176;12.102;2023-07-31T07:02:57;5.47;;;5.03;;
36551;SDS011;22559;54.176;12.102;2023-07-31T07:05:23;7.07;;;4.70;;
36551;SDS011;22559;54.176;12.102;2023-07-31T07:07:49;5.70;;;4.53;;
36551;SDS011;22559;54.176;12.102;2023-07-31T07:10:16;6.03;;;4.60;;
36551;SDS011;22559;54.176;12.102;2023-07-31T07:12:42;4.63;;;4.20;;
36551;SDS011;22559;54.176;12.102;2023-07-31T07:15:08;4.67;;;4.30;;
36551;SDS011;22559;54.176;12.102;2023-07-31T07:17:34;7.20;;;4.90;;
36551;SDS011;22559;54.176;12.102;2023-07-31T07:20:00;6.23;;;4.50;;
36551;SDS011;22559;54.176;12.102;2023-07-31T07:22:26;7.40;;;4.30;;
36551;SDS011;22559;54.176;12.102;2023-07-31T07:24:52;5.97;;;4.07;;
36551;SDS011;22559;54.176;12.102;2023-07-31T07:27:18;6.63;;;4.60;;
36551;SDS011;22559;54.176;12.102;2023-07-31T07:29:45;6.10;;;4.50;;
36551;SDS011;22559;54.176;12.102;2023-07-31T07:32:11;5.10;;;4.13;;
36551;SDS011;22559;54.176;12.102;2023-07-31T07:34:37;4.53;;;4.13;;
36551;SDS011;22559;54.176;12.102;2023-07-31T07:37:02;4.90;;;3.90;;
36551;SDS011;22559;54.176;12.102;2023-07-31T07:39:28;3.73;;;3.43;;
36551;SDS011;22559;54.176;12.102;2023-07-31T07:41:54;4.10;;;3.80;;
36551;SDS011;22559;54.176;12.102;2023-07-31T07:44:19;3.97;;;3.53;;
36551;SDS011;22559;54.176;12.102;2023-07-31T07:46:45;3.88;;;3.28;;
36551;SDS011;22559;54.176;12.102;2023-07-31T07:49:11;3.67;;;3.10;;
36551;SDS011;22559;54.176;12.102;2023-07-31T07:51:36;4.88;;;3.22;;
36551;SDS011;22559;54.176;12.102;2023-07-31T07:54:02;3.70;;;3.42;;
36551;SDS011;22559;54.176;12.102;2023-07-31T07:56:27;3.30;;;2.97;;
36551;SDS011;22559;54.176;12.102;2023-07-31T07:58:53;2.80;;;2.63;;
36551;SDS011;22559;54.176;12.102;2023-07-31T08:01:19;2.83;;;2.65;;
36551;SDS011;22559;54.176;12.102;2023-07-31T08:03:45;2.90;;;2.70;;
36551;SDS011;22559;54.176;12.102;2023-07-31T08:06:11;2.90;;;2.70;;
36551;SDS011;22559;54.176;12.102;2023-07-31T08:08:38;3.22;;;2.92;;
36551;SDS011;22559;54.176;12.102;2023-07-31T08:11:03;2.55;;;2.35;;
36551;SDS011;22559;54.176;12.102;2023-07-31T08:13:29;2.42;;;2.22;;
36551;SDS011;22559;54.176;12.102;2023-07-31T08:15:55;2.75;;;2.50;;
36551;SDS011;22559;54.176;12.102;2023-07-31T08:18:21;2.33;;;2.22;;
36551;SDS011;22559;54.176;12.102;2023-07-31T08:20:46;2.53;;;2.33;;
36551;SDS011;22559;54.176;12.102;2023-07-31T08:23:12;2.35;;;2.15;;
36551;SDS011;22559;54.176;12.102;2023-07-31T08:25:38;2.33;;;2.13;;
36551;SDS011;22559;54.176;12.102;2023-07-31T08:28:04;2.60;;;2.40;;
36551;SDS011;22559;54.176;12.102;2023-07-31T08:30:31;2.40;;;2.30;;
36551;SDS011;22559;54.176;12.102;2023-07-31T08:32:57;2.17;;;2.00;;
36551;SDS011;22559;54.176;12.102;2023-07-31T08:35:23;2.40;;;2.30;;
36551;SDS011;22559;54.176;12.102;2023-07-31T08:37:49;2.60;;;2.33;;
36551;SDS011;22559;54.176;12.102;2023-07-31T08:40:15;2.20;;;2.10;;
36551;SDS011;22559;54.176;12.102;2023-07-31T08:42:44;2.53;;;2.33;;
36551;SDS011;22559;54.176;12.102;2023-07-31T08:45:13;2.30;;;2.15;;
36551;SDS011;22559;54.176;12.102;2023-07-31T08:47:42;2.45;;;2.25;;
36551;SDS011;22559;54.176;12.102;2023-07-31T08:50:10;2.20;;;2.10;;
36551;SDS011;22559;54.176;12.102;2023-07-31T08:52:37;2.80;;;2.60;;
36551;SDS011;22559;54.176;12.102;2023-07-31T08:55:03;2.65;;;2.35;;
36551;SDS011;22559;54.176;12.102;2023-07-31T08:57:29;2.45;;;2.30;;
36551;SDS011;22559;54.176;12.102;2023-07-31T08:59:56;2.70;;;2.50;;
36551;SDS011;22559;54.176;12.102;2023-07-31T09:02:22;3.35;;;2.38;;
36551;SDS011;22559;54.176;12.102;2023-07-31T09:04:54;2.30;;;2.20;;
36551;SDS011;22559;54.176;12.102;2023-07-31T09:07:20;2.25;;;2.10;;
36551;SDS011;22559;54.176;12.102;2023-07-31T09:09:46;2.10;;;2.00;;
36551;SDS011;22559;54.176;12.102;2023-07-31T09:12:12;1.58;;;1.58;;
36551;SDS011;22559;54.176;12.102;2023-07-31T09:14:38;1.60;;;1.60;;
36551;SDS011;22559;54.176;12.102;2023-07-31T09:17:05;1.90;;;1.80;;
36551;SDS011;22559;54.176;12.102;2023-07-31T09:19:35;2.10;;;2.00;;
36551;SDS011;22559;54.176;12.102;2023-07-31T09:22:07;2.08;;;1.98;;
36551;SDS011;22559;54.176;12.102;2023-07-31T09:24:33;1.90;;;1.80;;
36551;SDS011;22559;54.176;12.102;2023-07-31T09:27:00;1.70;;;1.60;;
36551;SDS011;22559;54.176;12.102;2023-07-31T09:29:26;1.80;;;1.70;;
36551;SDS011;22559;54.176;12.102;2023-07-31T09:31:54;2.10;;;2.00;;
36551;SDS011;22559;54.176;12.102;2023-07-31T09:34:21;1.90;;;1.80;;
36551;SDS011;22559;54.176;12.102;2023-07-31T09:36:54;1.60;;;1.60;;
36551;SDS011;22559;54.176;12.102;2023-07-31T09:39:20;1.50;;;1.50;;
36551;SDS011;22559;54.176;12.102;2023-07-31T09:41:55;2.40;;;1.70;;
36551;SDS011;22559;54.176;12.102;2023-07-31T09:44:21;1.80;;;1.70;;
36551;SDS011;22559;54.176;12.102;2023-07-31T09:46:47;1.92;;;1.63;;
36551;SDS011;22559;54.176;12.102;2023-07-31T09:49:13;1.63;;;1.52;;
36551;SDS011;22559;54.176;12.102;2023-07-31T09:51:40;1.73;;;1.63;;
36551;SDS011;22559;54.176;12.102;2023-07-31T09:54:10;1.58;;;1.48;;
36551;SDS011;22559;54.176;12.102;2023-07-31T09:56:39;1.45;;;1.45;;
36551;SDS011;22559;54.176;12.102;2023-07-31T09:59:17;3.63;;;1.60;;
36551;SDS011;22559;54.176;12.102;2023-07-31T10:01:44;1.42;;;1.40;;
36551;SDS011;22559;54.176;12.102;2023-07-31T10:04:11;1.60;;;1.60;;
36551;SDS011;22559;54.176;12.102;2023-07-31T10:06:38;1.27;;;1.25;;
36551;SDS011;22559;54.176;12.102;2023-07-31T10:09:05;1.60;;;1.50;;
36551;SDS011;22559;54.176;12.102;2023-07-31T10:11:43;1.73;;;1.63;;
36551;SDS011;22559;54.176;12.102;2023-07-31T10:14:16;2.35;;;1.70;;
36551;SDS011;22559;54.176;12.102;2023-07-31T10:16:44;1.77;;;1.70;;
36551;SDS011;22559;54.176;12.102;2023-07-31T10:19:10;1.60;;;1.52;;
36551;SDS011;22559;54.176;12.102;2023-07-31T10:21:36;1.63;;;1.55;;
36551;SDS011;22559;54.176;12.102;2023-07-31T10:24:03;1.60;;;1.50;;
36551;SDS011;22559;54.176;12.102;2023-07-31T10:26:30;1.70;;;1.60;;
36551;SDS011;22559;54.176;12.102;2023-07-31T10:28:58;1.75;;;1.65;;
36551;SDS011;22559;54.176;12.102;2023-07-31T10:31:25;1.80;;;1.80;;
36551;SDS011;22559;54.176;12.102;2023-07-31T10:33:53;2.00;;;1.90;;
36551;SDS011;22559;54.176;12.102;2023-07-31T10:36:20;2.20;;;1.95;;
36551;SDS011;22559;54.176;12.102;2023-07-31T10:38:49;2.03;;;1.90;;
36551;SDS011;22559;54.176;12.102;2023-07-31T10:41:18;1.70;;;1.70;;
36551;SDS011;22559;54.176;12.102;2023-07-31T10:43:45;2.50;;;2.28;;
36551;SDS011;22559;54.176;12.102;2023-07-31T10:46:12;1.92;;;1.83;;
36551;SDS011;22559;54.176;12.102;2023-07-31T10:48:39;2.00;;;1.90;;
36551;SDS011;22559;54.176;12.102;2023-07-31T10:51:09;3.50;;;2.20;;
36551;SDS011;22559;54.176;12.102;2023-07-31T10:53:37;1.90;;;1.80;;
36551;SDS011;22559;54.176;12.102;2023-07-31T10:56:07;2.08;;;1.77;;
36551;SDS011;22559;54.176;12.102;2023-07-31T10:58:34;2.20;;;2.10;;
36551;SDS011;22559;54.176;12.102;2023-07-31T11:01:03;2.28;;;2.17;;
36551;SDS011;22559;54.176;12.102;2023-07-31T11:03:42;2.17;;;2.08;;
36551;SDS011;22559;54.176;12.102;2023-07-31T11:06:14;2.20;;;2.10;;
36551;SDS011;22559;54.176;12.102;2023-07-31T11:08:44;2.25;;;2.15;;
36551;SDS011;22559;54.176;12.102;2023-07-31T11:11:12;2.40;;;2.30;;
36551;SDS011;22559;54.176;12.102;2023-07-31T11:13:46;3.00;;;2.80;;
36551;SDS011;22559;54.176;12.102;2023-07-31T11:16:15;2.83;;;2.63;;
36551;SDS011;22559;54.176;12.102;2023-07-31T11:18:42;2.88;;;2.47;;
36551;SDS011;22559;54.176;12.102;2023-07-31T11:21:12;2.40;;;2.30;;
36551;SDS011;22559;54.176;12.102;2023-07-31T11:23:39;2.22;;;2.13;;
36551;SDS011;22559;54.176;12.102;2023-07-31T11:26:04;2.42;;;2.22;;
36551;SDS011;22559;54.176;12.102;2023-07-31T11:28:34;2.35;;;2.20;;
36551;SDS011;22559;54.176;12.102;2023-07-31T11:31:00;2.58;;;2.38;;
36551;SDS011;22559;54.176;12.102;2023-07-31T11:33:27;2.60;;;2.50;;
36551;SDS011;22559;54.176;12.102;2023-07-31T11:35:53;2.58;;;2.38;;
36551;SDS011;22559;54.176;12.102;2023-07-31T11:38:29;2.40;;;2.20;;
36551;SDS011;22559;54.176;12.102;2023-07-31T11:41:03;1.90;;;1.80;;
36551;SDS011;22559;54.176;12.102;2023-07-31T11:43:30;2.22;;;2.10;;
36551;SDS011;22559;54.176;12.102;2023-07-31T11:45:57;2.35;;;2.17;;
36551;SDS011;22559;54.176;12.102;2023-07-31T11:48:25;2.53;;;2.33;;
36551;SDS011;22559;54.176;12.102;2023-07-31T11:51:05;1.88;;;1.77;;
36551;SDS011;22559;54.176;12.102;2023-07-31T11:53:52;1.70;;;1.60;;
36551;SDS011;22559;54.176;12.102;2023-07-31T11:56:20;1.90;;;1.80;;
36551;SDS011;22559;54.176;12.102;2023-07-31T11:58:53;2.10;;;2.00;;
36551;SDS011;22559;54.176;12.102;2023-07-31T12:01:21;2.15;;;1.95;;
36551;SDS011;22559;54.176;12.102;2023-07-31T12:03:51;2.30;;;2.20;;
36551;SDS011;22559;54.176;12.102;2023-07-31T12:06:17;2.30;;;2.10;;
36551;SDS011;22559;54.176;12.102;2023-07-31T12:08:45;1.87;;;1.70;;
36551;SDS011;22559;54.176;12.102;2023-07-31T12:11:11;1.57;;;1.47;;
36551;SDS011;22559;54.176;12.102;2023-07-31T12:13:38;1.63;;;1.53;;
36551;SDS011;22559;54.176;12.102;2023-07-31T12:16:04;1.90;;;1.70;;
36551;SDS011;22559;54.176;12.102;2023-07-31T12:18:33;2.07;;;1.73;;
36551;SDS011;22559;54.176;12.102;2023-07-31T12:21:01;1.87;;;1.77;;
36551;SDS011;22559;54.176;12.102;2023-07-31T12:23:32;1.80;;;1.70;;
36551;SDS011;22559;54.176;12.102;2023-07-31T12:26:05;1.20;;;1.20;;
36551;SDS011;22559;54.176;12.102;2023-07-31T12:28:36;1.47;;;1.37;;
36551;SDS011;22559;54.176;12.102;2023-07-31T12:31:03;2.47;;;2.30;;
36551;SDS011;22559;54.176;12.102;2023-07-31T12:33:36;1.40;;;1.40;;
36551;SDS011;22559;54.176;12.102;2023-07-31T12:36:04;1.20;;;1.20;;
36551;SDS011;22559;54.176;12.102;2023-07-31T12:38:32;1.43;;;1.37;;
36551;SDS011;22559;54.176;12.102;2023-07-31T12:40:58;1.20;;;1.20;;
36551;SDS011;22559;54.176;12.102;2023-07-31T12:43:24;1.23;;;1.23;;
36551;SDS011;22559;54.176;12.102;2023-07-31T12:45:50;0.90;;;0.90;;
36551;SDS011;22559;54.176;12.102;2023-07-31T12:48:15;0.97;;;0.97;;
36551;SDS011;22559;54.176;12.102;2023-07-31T12:50:41;0.90;;;0.90;;
36551;SDS011;22559;54.176;12.102;2023-07-31T12:53:07;1.17;;;0.80;;
36551;SDS011;22559;54.176;12.102;2023-07-31T12:55:33;1.77;;;1.00;;
36551;SDS011;22559;54.176;12.102;2023-07-31T12:58:02;1.23;;;0.90;;
36551;SDS011;22559;54.176;12.102;2023-07-31T13:00:28;0.90;;;0.90;;
36551;SDS011;22559;54.176;12.102;2023-07-31T13:02:53;0.60;;;0.60;;
36551;SDS011;22559;54.176;12.102;2023-07-31T13:05:19;0.82;;;0.70;;
36551;SDS011;22559;54.176;12.102;2023-07-31T13:07:46;0.88;;;0.88;;
36551;SDS011;22559;54.176;12.102;2023-07-31T13:10:12;0.87;;;0.87;;
36551;SDS011;22559;54.176;12.102;2023-07-31T13:12:38;0.90;;;0.90;;
36551;SDS011;22559;54.176;12.102;2023-07-31T13:15:04;1.23;;;1.13;;
36551;SDS011;22559;54.176;12.102;2023-07-31T13:17:30;0.90;;;0.90;;
36551;SDS011;22559;54.176;12.102;2023-07-31T13:19:56;1.00;;;1.00;;
36551;SDS011;22559;54.176;12.102;2023-07-31T13:22:22;0.70;;;0.70;;
36551;SDS011;22559;54.176;12.102;2023-07-31T13:24:47;1.00;;;1.00;;
36551;SDS011;22559;54.176;12.102;2023-07-31T13:27:13;0.90;;;0.90;;
36551;SDS011;22559;54.176;12.102;2023-07-31T13:29:43;0.90;;;0.90;;
36551;SDS011;22559;54.176;12.102;2023-07-31T13:32:08;0.98;;;0.98;;
36551;SDS011;22559;54.176;12.102;2023-07-31T13:34:34;0.70;;;0.70;;
36551;SDS011;22559;54.176;12.102;2023-07-31T13:37:00;0.93;;;0.93;;
36551;SDS011;22559;54.176;12.102;2023-07-31T13:39:25;1.63;;;1.10;;
36551;SDS011;22559;54.176;12.102;2023-07-31T13:41:51;0.95;;;0.95;;
36551;SDS011;22559;54.176;12.102;2023-07-31T13:44:17;1.02;;;0.82;;
36551;SDS011;22559;54.176;12.102;2023-07-31T13:46:42;1.27;;;1.23;;
36551;SDS011;22559;54.176;12.102;2023-07-31T13:49:10;0.77;;;0.77;;
36551;SDS011;22559;54.176;12.102;2023-07-31T13:51:36;1.30;;;1.20;;
36551;SDS011;22559;54.176;12.102;2023-07-31T13:54:04;0.98;;;0.98;;
36551;SDS011;22559;54.176;12.102;2023-07-31T13:56:31;1.00;;;1.00;;
36551;SDS011;22559;54.176;12.102;2023-07-31T13:58:57;1.17;;;1.00;;
36551;SDS011;22559;54.176;12.102;2023-07-31T14:01:22;1.08;;;1.08;;
36551;SDS011;22559;54.176;12.102;2023-07-31T14:03:49;0.90;;;0.90;;
36551;SDS011;22559;54.176;12.102;2023-07-31T14:06:14;1.05;;;1.05;;
36551;SDS011;22559;54.176;12.102;2023-07-31T14:08:40;1.10;;;1.10;;
36551;SDS011;22559;54.176;12.102;2023-07-31T14:11:06;0.93;;;0.93;;
36551;SDS011;22559;54.176;12.102;2023-07-31T14:13:31;1.00;;;1.00;;
36551;SDS011;22559;54.176;12.102;2023-07-31T14:15:57;0.90;;;0.90;;
36551;SDS011;22559;54.176;12.102;2023-07-31T14:18:22;1.40;;;1.30;;
36551;SDS011;22559;54.176;12.102;2023-07-31T14:20:48;0.95;;;0.95;;
36551;SDS011;22559;54.176;12.102;2023-07-31T14:23:14;1.02;;;0.88;;
36551;SDS011;22559;54.176;12.102;2023-07-31T14:25:40;1.07;;;1.07;;
36551;SDS011;22559;54.176;12.102;2023-07-31T14:28:06;0.93;;;0.93;;
36551;SDS011;22559;54.176;12.102;2023-07-31T14:30:31;0.90;;;0.90;;
36551;SDS011;22559;54.176;12.102;2023-07-31T14:32:57;1.00;;;0.93;;
36551;SDS011;22559;54.176;12.102;2023-07-31T14:35:23;1.05;;;0.95;;